sensor_id;sensor_type;location;lat;lon;timestamp;P1;durP1;ratioP1;P2;durP2;ratioP2
33830;SDS011;20137;48.834;8.732;2022-12-18T00:01:32;54.30;;;22.23;;
33830;SDS011;20137;48.834;8.732;2022-12-18T00:03:59;56.42;;;24.15;;
33830;SDS011;20137;48.834;8.732;2022-12-18T00:06:26;54.28;;;23.40;;
33830;SDS011;20137;48.834;8.732;2022-12-18T00:08:54;55.63;;;22.50;;
33830;SDS011;20137;48.834;8.732;2022-12-18T00:11:22;53.55;;;22.10;;
33830;SDS011;20137;48.834;8.732;2022-12-18T00:13:48;58.97;;;24.05;;
33830;SDS011;20137;48.834;8.732;2022-12-18T00:16:15;53.80;;;22.52;;
33830;SDS011;20137;48.834;8.732;2022-12-18T00:18:43;55.22;;;23.05;;
33830;SDS011;20137;48.834;8.732;2022-12-18T00:21:10;50.75;;;22.27;;
33830;SDS011;20137;48.834;8.732;2022-12-18T00:23:37;49.03;;;22.52;;
33830;SDS011;20137;48.834;8.732;2022-12-18T00:26:04;50.70;;;22.35;;
33830;SDS011;20137;48.834;8.732;2022-12-18T00:28:30;46.47;;;21.48;;
33830;SDS011;20137;48.834;8.732;2022-12-18T00:31:06;49.15;;;21.25;;
33830;SDS011;20137;48.834;8.732;2022-12-18T00:33:32;52.17;;;21.73;;
33830;SDS011;20137;48.834;8.732;2022-12-18T00:36:02;52.13;;;21.63;;
33830;SDS011;20137;48.834;8.732;2022-12-18T00:38:29;53.83;;;22.73;;
33830;SDS011;20137;48.834;8.732;2022-12-18T00:40:55;60.83;;;24.20;;
33830;SDS011;20137;48.834;8.732;2022-12-18T00:43:21;56.30;;;23.50;;
33830;SDS011;20137;48.834;8.732;2022-12-18T00:45:47;55.03;;;23.05;;
33830;SDS011;20137;48.834;8.732;2022-12-18T00:48:13;55.38;;;23.65;;
33830;SDS011;20137;48.834;8.732;2022-12-18T00:50:39;54.72;;;22.85;;
33830;SDS011;20137;48.834;8.732;2022-12-18T00:53:05;52.75;;;22.90;;
33830;SDS011;20137;48.834;8.732;2022-12-18T00:55:31;57.38;;;22.88;;
33830;SDS011;20137;48.834;8.732;2022-12-18T00:57:57;63.78;;;25.23;;
33830;SDS011;20137;48.834;8.732;2022-12-18T01:00:23;61.85;;;24.85;;
33830;SDS011;20137;48.834;8.732;2022-12-18T01:02:49;58.40;;;24.00;;
33830;SDS011;20137;48.834;8.732;2022-12-18T01:05:16;56.90;;;23.90;;
33830;SDS011;20137;48.834;8.732;2022-12-18T01:07:42;56.65;;;23.13;;
33830;SDS011;20137;48.834;8.732;2022-12-18T01:10:08;59.42;;;23.30;;
33830;SDS011;20137;48.834;8.732;2022-12-18T01:12:35;53.35;;;22.42;;
33830;SDS011;20137;48.834;8.732;2022-12-18T01:15:01;44.83;;;21.20;;
33830;SDS011;20137;48.834;8.732;2022-12-18T01:17:27;53.40;;;21.63;;
33830;SDS011;20137;48.834;8.732;2022-12-18T01:19:53;46.05;;;20.10;;
33830;SDS011;20137;48.834;8.732;2022-12-18T01:22:19;48.28;;;22.08;;
33830;SDS011;20137;48.834;8.732;2022-12-18T01:24:46;53.80;;;22.00;;
33830;SDS011;20137;48.834;8.732;2022-12-18T01:27:12;58.58;;;22.70;;
33830;SDS011;20137;48.834;8.732;2022-12-18T01:29:38;52.75;;;22.77;;
33830;SDS011;20137;48.834;8.732;2022-12-18T01:32:04;53.08;;;22.60;;
33830;SDS011;20137;48.834;8.732;2022-12-18T01:34:30;58.40;;;22.15;;
33830;SDS011;20137;48.834;8.732;2022-12-18T01:36:56;56.92;;;22.50;;
33830;SDS011;20137;48.834;8.732;2022-12-18T01:39:22;50.88;;;22.63;;
33830;SDS011;20137;48.834;8.732;2022-12-18T01:41:48;56.22;;;23.55;;
33830;SDS011;20137;48.834;8.732;2022-12-18T01:47:20;55.72;;;23.17;;
33830;SDS011;20137;48.834;8.732;2022-12-18T01:49:47;57.10;;;22.77;;
33830;SDS011;20137;48.834;8.732;2022-12-18T01:52:13;46.50;;;21.35;;
33830;SDS011;20137;48.834;8.732;2022-12-18T01:54:39;51.03;;;21.88;;
33830;SDS011;20137;48.834;8.732;2022-12-18T01:57:05;48.13;;;21.90;;
33830;SDS011;20137;48.834;8.732;2022-12-18T01:59:32;46.45;;;20.38;;
33830;SDS011;20137;48.834;8.732;2022-12-18T02:01:59;50.17;;;21.27;;
33830;SDS011;20137;48.834;8.732;2022-12-18T02:04:26;48.67;;;20.88;;
33830;SDS011;20137;48.834;8.732;2022-12-18T02:09:24;49.55;;;20.52;;
33830;SDS011;20137;48.834;8.732;2022-12-18T02:11:59;49.25;;;21.42;;
33830;SDS011;20137;48.834;8.732;2022-12-18T02:19:37;54.55;;;22.00;;
33830;SDS011;20137;48.834;8.732;2022-12-18T02:22:20;51.53;;;22.75;;
33830;SDS011;20137;48.834;8.732;2022-12-18T02:27:34;51.90;;;20.20;;
33830;SDS011;20137;48.834;8.732;2022-12-18T02:30:02;51.40;;;20.85;;
33830;SDS011;20137;48.834;8.732;2022-12-18T02:32:30;47.83;;;21.17;;
33830;SDS011;20137;48.834;8.732;2022-12-18T02:34:58;48.28;;;20.17;;
33830;SDS011;20137;48.834;8.732;2022-12-18T02:37:25;48.47;;;21.95;;
33830;SDS011;20137;48.834;8.732;2022-12-18T02:39:53;47.10;;;21.08;;
33830;SDS011;20137;48.834;8.732;2022-12-18T02:42:20;44.47;;;20.23;;
33830;SDS011;20137;48.834;8.732;2022-12-18T02:44:48;50.10;;;21.00;;
33830;SDS011;20137;48.834;8.732;2022-12-18T02:47:14;44.63;;;19.45;;
33830;SDS011;20137;48.834;8.732;2022-12-18T03:00:14;48.47;;;20.20;;
33830;SDS011;20137;48.834;8.732;2022-12-18T03:02:44;51.70;;;19.80;;
33830;SDS011;20137;48.834;8.732;2022-12-18T03:05:22;49.97;;;21.35;;
33830;SDS011;20137;48.834;8.732;2022-12-18T03:07:53;49.63;;;21.02;;
33830;SDS011;20137;48.834;8.732;2022-12-18T03:10:23;46.95;;;19.83;;
33830;SDS011;20137;48.834;8.732;2022-12-18T03:12:54;44.75;;;18.75;;
33830;SDS011;20137;48.834;8.732;2022-12-18T03:15:27;47.53;;;20.60;;
33830;SDS011;20137;48.834;8.732;2022-12-18T03:17:56;49.60;;;19.98;;
33830;SDS011;20137;48.834;8.732;2022-12-18T03:20:25;56.30;;;21.40;;
33830;SDS011;20137;48.834;8.732;2022-12-18T03:22:53;48.53;;;19.38;;
33830;SDS011;20137;48.834;8.732;2022-12-18T03:25:20;50.85;;;21.65;;
33830;SDS011;20137;48.834;8.732;2022-12-18T03:27:47;49.78;;;21.10;;
33830;SDS011;20137;48.834;8.732;2022-12-18T03:30:15;49.15;;;21.80;;
33830;SDS011;20137;48.834;8.732;2022-12-18T03:35:10;57.13;;;23.25;;
33830;SDS011;20137;48.834;8.732;2022-12-18T03:37:38;52.15;;;22.05;;
33830;SDS011;20137;48.834;8.732;2022-12-18T03:40:04;54.22;;;23.50;;
33830;SDS011;20137;48.834;8.732;2022-12-18T03:42:49;52.70;;;23.30;;
33830;SDS011;20137;48.834;8.732;2022-12-18T03:45:27;58.20;;;24.20;;
33830;SDS011;20137;48.834;8.732;2022-12-18T03:48:09;56.35;;;23.50;;
33830;SDS011;20137;48.834;8.732;2022-12-18T03:53:10;54.30;;;23.25;;
33830;SDS011;20137;48.834;8.732;2022-12-18T03:55:39;54.45;;;22.08;;
33830;SDS011;20137;48.834;8.732;2022-12-18T03:58:06;52.40;;;22.40;;
33830;SDS011;20137;48.834;8.732;2022-12-18T04:00:33;53.72;;;22.60;;
33830;SDS011;20137;48.834;8.732;2022-12-18T04:02:59;48.92;;;22.00;;
33830;SDS011;20137;48.834;8.732;2022-12-18T04:05:26;52.30;;;22.17;;
33830;SDS011;20137;48.834;8.732;2022-12-18T04:07:52;51.08;;;21.08;;
33830;SDS011;20137;48.834;8.732;2022-12-18T04:10:19;52.30;;;22.42;;
33830;SDS011;20137;48.834;8.732;2022-12-18T04:12:45;56.92;;;20.50;;
33830;SDS011;20137;48.834;8.732;2022-12-18T04:15:12;49.88;;;21.13;;
33830;SDS011;20137;48.834;8.732;2022-12-18T04:17:38;49.90;;;19.88;;
33830;SDS011;20137;48.834;8.732;2022-12-18T04:20:07;43.65;;;19.33;;
33830;SDS011;20137;48.834;8.732;2022-12-18T04:22:34;47.45;;;19.67;;
33830;SDS011;20137;48.834;8.732;2022-12-18T04:25:00;49.22;;;20.02;;
33830;SDS011;20137;48.834;8.732;2022-12-18T04:27:26;49.15;;;21.15;;
33830;SDS011;20137;48.834;8.732;2022-12-18T04:29:52;46.22;;;20.67;;
33830;SDS011;20137;48.834;8.732;2022-12-18T04:32:18;45.28;;;21.45;;
33830;SDS011;20137;48.834;8.732;2022-12-18T04:34:44;42.53;;;19.33;;
33830;SDS011;20137;48.834;8.732;2022-12-18T04:37:10;50.00;;;20.77;;
33830;SDS011;20137;48.834;8.732;2022-12-18T04:39:36;46.60;;;20.83;;
33830;SDS011;20137;48.834;8.732;2022-12-18T04:42:02;53.10;;;22.13;;
33830;SDS011;20137;48.834;8.732;2022-12-18T04:44:28;44.13;;;21.30;;
33830;SDS011;20137;48.834;8.732;2022-12-18T04:46:54;53.30;;;21.00;;
33830;SDS011;20137;48.834;8.732;2022-12-18T04:49:20;47.55;;;21.05;;
33830;SDS011;20137;48.834;8.732;2022-12-18T04:51:47;42.90;;;19.75;;
33830;SDS011;20137;48.834;8.732;2022-12-18T04:54:13;46.53;;;19.95;;
33830;SDS011;20137;48.834;8.732;2022-12-18T04:56:39;45.47;;;20.52;;
33830;SDS011;20137;48.834;8.732;2022-12-18T04:59:05;47.13;;;18.50;;
33830;SDS011;20137;48.834;8.732;2022-12-18T05:01:34;47.13;;;18.83;;
33830;SDS011;20137;48.834;8.732;2022-12-18T05:04:00;49.30;;;20.35;;
33830;SDS011;20137;48.834;8.732;2022-12-18T05:06:26;40.17;;;17.95;;
33830;SDS011;20137;48.834;8.732;2022-12-18T05:08:52;44.45;;;17.35;;
33830;SDS011;20137;48.834;8.732;2022-12-18T05:11:18;44.83;;;19.80;;
33830;SDS011;20137;48.834;8.732;2022-12-18T05:13:44;46.50;;;18.98;;
33830;SDS011;20137;48.834;8.732;2022-12-18T05:16:11;39.05;;;18.40;;
33830;SDS011;20137;48.834;8.732;2022-12-18T05:18:37;47.03;;;18.50;;
33830;SDS011;20137;48.834;8.732;2022-12-18T05:21:03;46.45;;;19.30;;
33830;SDS011;20137;48.834;8.732;2022-12-18T05:23:29;48.45;;;19.30;;
33830;SDS011;20137;48.834;8.732;2022-12-18T05:25:59;42.85;;;18.90;;
33830;SDS011;20137;48.834;8.732;2022-12-18T05:28:26;47.67;;;18.27;;
33830;SDS011;20137;48.834;8.732;2022-12-18T05:30:54;43.50;;;18.05;;
33830;SDS011;20137;48.834;8.732;2022-12-18T05:33:20;41.08;;;17.75;;
33830;SDS011;20137;48.834;8.732;2022-12-18T05:35:52;46.53;;;18.52;;
33830;SDS011;20137;48.834;8.732;2022-12-18T05:38:19;39.28;;;16.92;;
33830;SDS011;20137;48.834;8.732;2022-12-18T05:40:46;44.22;;;17.63;;
33830;SDS011;20137;48.834;8.732;2022-12-18T05:43:12;42.05;;;18.45;;
33830;SDS011;20137;48.834;8.732;2022-12-18T05:45:39;44.70;;;17.70;;
33830;SDS011;20137;48.834;8.732;2022-12-18T05:48:05;39.67;;;16.42;;
33830;SDS011;20137;48.834;8.732;2022-12-18T05:50:33;47.03;;;17.83;;
33830;SDS011;20137;48.834;8.732;2022-12-18T05:52:59;41.25;;;16.98;;
33830;SDS011;20137;48.834;8.732;2022-12-18T05:55:25;40.70;;;17.80;;
33830;SDS011;20137;48.834;8.732;2022-12-18T05:57:51;42.53;;;17.00;;
33830;SDS011;20137;48.834;8.732;2022-12-18T06:00:17;40.58;;;18.48;;
33830;SDS011;20137;48.834;8.732;2022-12-18T06:02:46;41.42;;;16.45;;
33830;SDS011;20137;48.834;8.732;2022-12-18T06:05:12;44.30;;;17.92;;
33830;SDS011;20137;48.834;8.732;2022-12-18T06:07:38;48.28;;;18.23;;
33830;SDS011;20137;48.834;8.732;2022-12-18T06:10:04;39.75;;;17.77;;
33830;SDS011;20137;48.834;8.732;2022-12-18T06:12:30;41.40;;;18.15;;
33830;SDS011;20137;48.834;8.732;2022-12-18T06:14:58;49.53;;;17.95;;
33830;SDS011;20137;48.834;8.732;2022-12-18T06:17:27;47.85;;;18.17;;
33830;SDS011;20137;48.834;8.732;2022-12-18T06:19:53;50.33;;;19.63;;
33830;SDS011;20137;48.834;8.732;2022-12-18T06:22:20;55.13;;;20.90;;
33830;SDS011;20137;48.834;8.732;2022-12-18T06:24:46;63.20;;;21.90;;
33830;SDS011;20137;48.834;8.732;2022-12-18T06:27:12;61.25;;;22.75;;
33830;SDS011;20137;48.834;8.732;2022-12-18T06:29:38;63.30;;;21.77;;
33830;SDS011;20137;48.834;8.732;2022-12-18T06:32:04;61.10;;;20.77;;
33830;SDS011;20137;48.834;8.732;2022-12-18T06:34:30;58.58;;;21.17;;
33830;SDS011;20137;48.834;8.732;2022-12-18T06:36:56;60.60;;;22.08;;
33830;SDS011;20137;48.834;8.732;2022-12-18T06:39:22;69.07;;;22.77;;
33830;SDS011;20137;48.834;8.732;2022-12-18T06:41:48;69.78;;;23.60;;
33830;SDS011;20137;48.834;8.732;2022-12-18T06:44:14;70.45;;;23.38;;
33830;SDS011;20137;48.834;8.732;2022-12-18T06:46:40;72.65;;;24.27;;
33830;SDS011;20137;48.834;8.732;2022-12-18T06:49:06;67.38;;;23.08;;
33830;SDS011;20137;48.834;8.732;2022-12-18T06:51:34;71.20;;;24.55;;
33830;SDS011;20137;48.834;8.732;2022-12-18T06:54:00;70.03;;;21.98;;
33830;SDS011;20137;48.834;8.732;2022-12-18T06:56:26;80.45;;;26.60;;
33830;SDS011;20137;48.834;8.732;2022-12-18T06:58:52;68.80;;;22.58;;
33830;SDS011;20137;48.834;8.732;2022-12-18T07:01:19;64.18;;;23.50;;
33830;SDS011;20137;48.834;8.732;2022-12-18T07:03:46;78.95;;;31.25;;
33830;SDS011;20137;48.834;8.732;2022-12-18T07:06:15;75.18;;;30.90;;
33830;SDS011;20137;48.834;8.732;2022-12-18T07:08:42;77.05;;;27.50;;
33830;SDS011;20137;48.834;8.732;2022-12-18T07:11:08;72.15;;;24.05;;
33830;SDS011;20137;48.834;8.732;2022-12-18T07:13:34;77.95;;;26.25;;
33830;SDS011;20137;48.834;8.732;2022-12-18T07:16:11;70.35;;;24.00;;
33830;SDS011;20137;48.834;8.732;2022-12-18T07:18:37;76.60;;;24.33;;
33830;SDS011;20137;48.834;8.732;2022-12-18T07:21:04;71.10;;;24.25;;
33830;SDS011;20137;48.834;8.732;2022-12-18T07:23:31;66.63;;;23.33;;
33830;SDS011;20137;48.834;8.732;2022-12-18T07:26:03;70.13;;;23.98;;
33830;SDS011;20137;48.834;8.732;2022-12-18T07:28:30;69.45;;;23.55;;
33830;SDS011;20137;48.834;8.732;2022-12-18T07:30:56;64.60;;;23.42;;
33830;SDS011;20137;48.834;8.732;2022-12-18T07:33:22;71.78;;;24.08;;
33830;SDS011;20137;48.834;8.732;2022-12-18T07:35:48;79.00;;;26.15;;
33830;SDS011;20137;48.834;8.732;2022-12-18T07:38:14;70.68;;;23.85;;
33830;SDS011;20137;48.834;8.732;2022-12-18T07:40:40;67.68;;;23.05;;
33830;SDS011;20137;48.834;8.732;2022-12-18T07:43:06;64.00;;;21.50;;
33830;SDS011;20137;48.834;8.732;2022-12-18T07:45:32;71.78;;;23.50;;
33830;SDS011;20137;48.834;8.732;2022-12-18T07:47:58;65.88;;;23.13;;
33830;SDS011;20137;48.834;8.732;2022-12-18T07:50:24;68.03;;;24.83;;
33830;SDS011;20137;48.834;8.732;2022-12-18T07:52:50;70.40;;;24.77;;
33830;SDS011;20137;48.834;8.732;2022-12-18T07:55:16;62.03;;;24.42;;
33830;SDS011;20137;48.834;8.732;2022-12-18T07:57:42;73.57;;;24.90;;
33830;SDS011;20137;48.834;8.732;2022-12-18T08:00:08;65.50;;;24.88;;
33830;SDS011;20137;48.834;8.732;2022-12-18T08:02:34;72.53;;;24.48;;
33830;SDS011;20137;48.834;8.732;2022-12-18T08:05:00;66.72;;;24.15;;
33830;SDS011;20137;48.834;8.732;2022-12-18T08:07:26;65.43;;;23.88;;
33830;SDS011;20137;48.834;8.732;2022-12-18T08:09:52;59.17;;;23.02;;
33830;SDS011;20137;48.834;8.732;2022-12-18T08:12:18;77.95;;;25.65;;
33830;SDS011;20137;48.834;8.732;2022-12-18T08:14:44;69.00;;;24.45;;
33830;SDS011;20137;48.834;8.732;2022-12-18T08:17:10;70.53;;;25.83;;
33830;SDS011;20137;48.834;8.732;2022-12-18T08:19:36;67.00;;;24.40;;
33830;SDS011;20137;48.834;8.732;2022-12-18T08:22:02;65.75;;;24.77;;
33830;SDS011;20137;48.834;8.732;2022-12-18T08:24:28;70.93;;;23.15;;
33830;SDS011;20137;48.834;8.732;2022-12-18T08:26:54;65.63;;;24.45;;
33830;SDS011;20137;48.834;8.732;2022-12-18T08:29:22;66.22;;;23.67;;
33830;SDS011;20137;48.834;8.732;2022-12-18T08:31:48;68.38;;;25.05;;
33830;SDS011;20137;48.834;8.732;2022-12-18T08:34:14;70.18;;;26.50;;
33830;SDS011;20137;48.834;8.732;2022-12-18T08:36:40;66.43;;;24.15;;
33830;SDS011;20137;48.834;8.732;2022-12-18T08:39:06;61.72;;;22.60;;
33830;SDS011;20137;48.834;8.732;2022-12-18T08:41:32;67.32;;;25.27;;
33830;SDS011;20137;48.834;8.732;2022-12-18T08:43:58;66.47;;;25.83;;
33830;SDS011;20137;48.834;8.732;2022-12-18T08:46:42;84.53;;;31.55;;
33830;SDS011;20137;48.834;8.732;2022-12-18T08:49:09;66.25;;;23.77;;
33830;SDS011;20137;48.834;8.732;2022-12-18T08:51:35;62.67;;;24.50;;
33830;SDS011;20137;48.834;8.732;2022-12-18T08:54:02;62.17;;;25.30;;
33830;SDS011;20137;48.834;8.732;2022-12-18T08:56:28;78.30;;;28.35;;
33830;SDS011;20137;48.834;8.732;2022-12-18T08:58:54;66.38;;;27.55;;
33830;SDS011;20137;48.834;8.732;2022-12-18T09:01:21;67.78;;;25.90;;
33830;SDS011;20137;48.834;8.732;2022-12-18T09:03:48;69.13;;;25.45;;
33830;SDS011;20137;48.834;8.732;2022-12-18T09:06:15;69.13;;;27.40;;
33830;SDS011;20137;48.834;8.732;2022-12-18T09:08:41;72.15;;;26.67;;
33830;SDS011;20137;48.834;8.732;2022-12-18T09:11:14;81.38;;;31.08;;
33830;SDS011;20137;48.834;8.732;2022-12-18T09:13:40;97.28;;;38.67;;
33830;SDS011;20137;48.834;8.732;2022-12-18T09:16:07;88.75;;;36.67;;
33830;SDS011;20137;48.834;8.732;2022-12-18T09:18:33;78.75;;;29.58;;
33830;SDS011;20137;48.834;8.732;2022-12-18T09:20:59;66.45;;;26.48;;
33830;SDS011;20137;48.834;8.732;2022-12-18T09:23:25;83.25;;;29.25;;
33830;SDS011;20137;48.834;8.732;2022-12-18T09:25:51;87.07;;;32.65;;
33830;SDS011;20137;48.834;8.732;2022-12-18T09:28:17;84.18;;;31.45;;
33830;SDS011;20137;48.834;8.732;2022-12-18T09:30:47;72.80;;;29.15;;
33830;SDS011;20137;48.834;8.732;2022-12-18T09:33:14;74.32;;;27.75;;
33830;SDS011;20137;48.834;8.732;2022-12-18T09:35:41;81.97;;;31.48;;
33830;SDS011;20137;48.834;8.732;2022-12-18T09:38:08;70.53;;;26.98;;
33830;SDS011;20137;48.834;8.732;2022-12-18T09:40:43;76.80;;;27.23;;
33830;SDS011;20137;48.834;8.732;2022-12-18T09:43:13;77.50;;;30.38;;
33830;SDS011;20137;48.834;8.732;2022-12-18T09:45:41;70.78;;;27.38;;
33830;SDS011;20137;48.834;8.732;2022-12-18T09:48:22;97.50;;;35.90;;
33830;SDS011;20137;48.834;8.732;2022-12-18T09:50:49;90.22;;;34.50;;
33830;SDS011;20137;48.834;8.732;2022-12-18T09:53:17;70.85;;;27.33;;
33830;SDS011;20137;48.834;8.732;2022-12-18T09:55:45;67.47;;;26.55;;
33830;SDS011;20137;48.834;8.732;2022-12-18T10:00:37;70.43;;;26.48;;
33830;SDS011;20137;48.834;8.732;2022-12-18T10:03:08;69.00;;;27.77;;
33830;SDS011;20137;48.834;8.732;2022-12-18T10:08:33;75.55;;;29.20;;
33830;SDS011;20137;48.834;8.732;2022-12-18T10:11:11;74.25;;;27.08;;
33830;SDS011;20137;48.834;8.732;2022-12-18T10:13:42;78.43;;;29.33;;
33830;SDS011;20137;48.834;8.732;2022-12-18T10:16:13;70.93;;;27.38;;
33830;SDS011;20137;48.834;8.732;2022-12-18T10:21:18;77.03;;;30.05;;
33830;SDS011;20137;48.834;8.732;2022-12-18T10:26:13;75.05;;;30.40;;
33830;SDS011;20137;48.834;8.732;2022-12-18T10:28:40;71.38;;;27.63;;
33830;SDS011;20137;48.834;8.732;2022-12-18T10:31:27;70.00;;;28.67;;
33830;SDS011;20137;48.834;8.732;2022-12-18T10:33:56;70.97;;;27.40;;
33830;SDS011;20137;48.834;8.732;2022-12-18T10:36:23;69.82;;;28.20;;
33830;SDS011;20137;48.834;8.732;2022-12-18T10:38:49;72.90;;;28.02;;
33830;SDS011;20137;48.834;8.732;2022-12-18T10:43:47;74.68;;;29.40;;
33830;SDS011;20137;48.834;8.732;2022-12-18T10:46:16;73.43;;;29.67;;
33830;SDS011;20137;48.834;8.732;2022-12-18T10:53:50;74.32;;;28.65;;
33830;SDS011;20137;48.834;8.732;2022-12-18T10:56:18;75.32;;;30.08;;
33830;SDS011;20137;48.834;8.732;2022-12-18T10:58:46;84.50;;;30.52;;
33830;SDS011;20137;48.834;8.732;2022-12-18T11:01:21;86.10;;;33.35;;
33830;SDS011;20137;48.834;8.732;2022-12-18T11:06:17;97.15;;;36.53;;
33830;SDS011;20137;48.834;8.732;2022-12-18T11:08:46;86.80;;;36.00;;
33830;SDS011;20137;48.834;8.732;2022-12-18T11:11:23;82.55;;;33.35;;
33830;SDS011;20137;48.834;8.732;2022-12-18T11:16:19;83.03;;;34.08;;
33830;SDS011;20137;48.834;8.732;2022-12-18T11:18:45;83.95;;;32.08;;
33830;SDS011;20137;48.834;8.732;2022-12-18T11:21:11;82.13;;;31.63;;
33830;SDS011;20137;48.834;8.732;2022-12-18T11:23:45;80.03;;;31.85;;
33830;SDS011;20137;48.834;8.732;2022-12-18T11:26:12;78.20;;;30.30;;
33830;SDS011;20137;48.834;8.732;2022-12-18T11:28:52;74.30;;;30.42;;
33830;SDS011;20137;48.834;8.732;2022-12-18T11:31:25;76.90;;;30.35;;
33830;SDS011;20137;48.834;8.732;2022-12-18T11:36:39;76.40;;;31.17;;
33830;SDS011;20137;48.834;8.732;2022-12-18T11:42:09;105.63;;;38.97;;
33830;SDS011;20137;48.834;8.732;2022-12-18T11:44:57;77.32;;;32.88;;
33830;SDS011;20137;48.834;8.732;2022-12-18T11:50:10;80.68;;;32.08;;
33830;SDS011;20137;48.834;8.732;2022-12-18T11:52:38;85.00;;;32.45;;
33830;SDS011;20137;48.834;8.732;2022-12-18T11:55:10;79.50;;;30.98;;
33830;SDS011;20137;48.834;8.732;2022-12-18T11:57:39;77.13;;;30.80;;
33830;SDS011;20137;48.834;8.732;2022-12-18T12:00:21;81.82;;;33.25;;
33830;SDS011;20137;48.834;8.732;2022-12-18T12:13:48;81.25;;;32.50;;
33830;SDS011;20137;48.834;8.732;2022-12-18T12:16:19;86.78;;;33.60;;
33830;SDS011;20137;48.834;8.732;2022-12-18T12:22:03;80.30;;;33.25;;
33830;SDS011;20137;48.834;8.732;2022-12-18T12:24:18;81.93;;;32.33;;
33830;SDS011;20137;48.834;8.732;2022-12-18T12:27:02;81.82;;;33.67;;
33830;SDS011;20137;48.834;8.732;2022-12-18T12:37:14;80.40;;;32.70;;
33830;SDS011;20137;48.834;8.732;2022-12-18T12:39:42;83.43;;;33.42;;
33830;SDS011;20137;48.834;8.732;2022-12-18T12:45:15;85.85;;;32.60;;
33830;SDS011;20137;48.834;8.732;2022-12-18T12:47:43;74.75;;;30.58;;
33830;SDS011;20137;48.834;8.732;2022-12-18T12:50:13;76.05;;;29.50;;
33830;SDS011;20137;48.834;8.732;2022-12-18T12:52:41;79.07;;;31.65;;
33830;SDS011;20137;48.834;8.732;2022-12-18T12:55:20;80.50;;;32.30;;
33830;SDS011;20137;48.834;8.732;2022-12-18T13:00:16;83.55;;;32.63;;
33830;SDS011;20137;48.834;8.732;2022-12-18T13:02:50;79.60;;;32.50;;
33830;SDS011;20137;48.834;8.732;2022-12-18T13:17:48;86.53;;;33.17;;
33830;SDS011;20137;48.834;8.732;2022-12-18T13:20:14;83.00;;;33.72;;
33830;SDS011;20137;48.834;8.732;2022-12-18T13:22:48;87.30;;;34.22;;
33830;SDS011;20137;48.834;8.732;2022-12-18T13:25:35;88.53;;;33.78;;
33830;SDS011;20137;48.834;8.732;2022-12-18T13:44:07;97.30;;;36.90;;
33830;SDS011;20137;48.834;8.732;2022-12-18T13:46:01;100.97;;;37.92;;
33830;SDS011;20137;48.834;8.732;2022-12-18T13:48:28;86.53;;;35.50;;
33830;SDS011;20137;48.834;8.732;2022-12-18T13:50:59;85.22;;;33.70;;
33830;SDS011;20137;48.834;8.732;2022-12-18T13:53:33;91.90;;;34.40;;
33830;SDS011;20137;48.834;8.732;2022-12-18T13:55:59;98.15;;;35.95;;
33830;SDS011;20137;48.834;8.732;2022-12-18T13:58:26;90.80;;;33.92;;
33830;SDS011;20137;48.834;8.732;2022-12-18T14:00:52;87.30;;;35.42;;
33830;SDS011;20137;48.834;8.732;2022-12-18T14:03:22;99.47;;;38.30;;
33830;SDS011;20137;48.834;8.732;2022-12-18T14:06:05;94.82;;;37.60;;
33830;SDS011;20137;48.834;8.732;2022-12-18T14:08:38;104.45;;;38.28;;
33830;SDS011;20137;48.834;8.732;2022-12-18T14:11:05;103.85;;;40.85;;
33830;SDS011;20137;48.834;8.732;2022-12-18T14:13:33;100.82;;;40.10;;
33830;SDS011;20137;48.834;8.732;2022-12-18T14:16:01;99.38;;;37.83;;
33830;SDS011;20137;48.834;8.732;2022-12-18T14:18:41;91.50;;;35.78;;
33830;SDS011;20137;48.834;8.732;2022-12-18T14:21:15;90.63;;;34.75;;
33830;SDS011;20137;48.834;8.732;2022-12-18T14:23:43;100.32;;;36.15;;
33830;SDS011;20137;48.834;8.732;2022-12-18T14:26:27;90.55;;;33.50;;
33830;SDS011;20137;48.834;8.732;2022-12-18T14:31:24;101.47;;;35.63;;
33830;SDS011;20137;48.834;8.732;2022-12-18T14:33:51;92.32;;;34.05;;
33830;SDS011;20137;48.834;8.732;2022-12-18T14:36:18;92.32;;;33.90;;
33830;SDS011;20137;48.834;8.732;2022-12-18T14:38:49;98.03;;;36.22;;
33830;SDS011;20137;48.834;8.732;2022-12-18T14:41:16;90.05;;;34.88;;
33830;SDS011;20137;48.834;8.732;2022-12-18T14:43:43;99.03;;;37.25;;
33830;SDS011;20137;48.834;8.732;2022-12-18T14:48:55;96.17;;;38.07;;
33830;SDS011;20137;48.834;8.732;2022-12-18T14:51:22;88.75;;;33.50;;
33830;SDS011;20137;48.834;8.732;2022-12-18T14:54:14;91.57;;;34.47;;
33830;SDS011;20137;48.834;8.732;2022-12-18T14:56:35;103.60;;;38.47;;
33830;SDS011;20137;48.834;8.732;2022-12-18T15:01:37;100.50;;;39.85;;
33830;SDS011;20137;48.834;8.732;2022-12-18T15:04:05;96.95;;;37.75;;
33830;SDS011;20137;48.834;8.732;2022-12-18T15:06:48;100.75;;;40.65;;
33830;SDS011;20137;48.834;8.732;2022-12-18T15:09:26;99.32;;;37.65;;
33830;SDS011;20137;48.834;8.732;2022-12-18T15:11:56;101.15;;;36.55;;
33830;SDS011;20137;48.834;8.732;2022-12-18T15:14:23;99.15;;;37.38;;
33830;SDS011;20137;48.834;8.732;2022-12-18T15:16:50;101.07;;;39.08;;
33830;SDS011;20137;48.834;8.732;2022-12-18T15:19:17;98.82;;;36.65;;
33830;SDS011;20137;48.834;8.732;2022-12-18T15:21:43;107.80;;;38.40;;
33830;SDS011;20137;48.834;8.732;2022-12-18T15:24:20;108.13;;;38.70;;
33830;SDS011;20137;48.834;8.732;2022-12-18T15:26:48;107.30;;;42.65;;
33830;SDS011;20137;48.834;8.732;2022-12-18T15:29:19;117.70;;;40.13;;
33830;SDS011;20137;48.834;8.732;2022-12-18T15:31:45;109.82;;;39.63;;
33830;SDS011;20137;48.834;8.732;2022-12-18T15:34:23;109.05;;;39.05;;
33830;SDS011;20137;48.834;8.732;2022-12-18T15:36:51;110.85;;;41.35;;
33830;SDS011;20137;48.834;8.732;2022-12-18T15:39:17;113.88;;;40.47;;
33830;SDS011;20137;48.834;8.732;2022-12-18T15:41:43;119.18;;;41.53;;
33830;SDS011;20137;48.834;8.732;2022-12-18T15:44:29;116.85;;;41.97;;
33830;SDS011;20137;48.834;8.732;2022-12-18T15:46:55;109.63;;;40.47;;
33830;SDS011;20137;48.834;8.732;2022-12-18T15:49:22;109.53;;;40.90;;
33830;SDS011;20137;48.834;8.732;2022-12-18T15:51:58;112.53;;;39.90;;
33830;SDS011;20137;48.834;8.732;2022-12-18T15:54:24;111.55;;;40.10;;
33830;SDS011;20137;48.834;8.732;2022-12-18T15:57:10;114.60;;;39.80;;
33830;SDS011;20137;48.834;8.732;2022-12-18T15:59:48;115.85;;;40.80;;
33830;SDS011;20137;48.834;8.732;2022-12-18T16:02:16;118.47;;;41.13;;
33830;SDS011;20137;48.834;8.732;2022-12-18T16:04:42;109.32;;;41.33;;
33830;SDS011;20137;48.834;8.732;2022-12-18T16:07:08;113.13;;;41.80;;
33830;SDS011;20137;48.834;8.732;2022-12-18T16:09:36;114.53;;;42.67;;
33830;SDS011;20137;48.834;8.732;2022-12-18T16:12:02;113.43;;;40.20;;
33830;SDS011;20137;48.834;8.732;2022-12-18T16:14:29;113.60;;;40.90;;
33830;SDS011;20137;48.834;8.732;2022-12-18T16:16:56;105.57;;;40.50;;
33830;SDS011;20137;48.834;8.732;2022-12-18T16:19:22;107.13;;;39.45;;
33830;SDS011;20137;48.834;8.732;2022-12-18T16:21:49;103.40;;;39.25;;
33830;SDS011;20137;48.834;8.732;2022-12-18T16:24:17;103.50;;;38.50;;
33830;SDS011;20137;48.834;8.732;2022-12-18T16:26:44;99.13;;;37.97;;
33830;SDS011;20137;48.834;8.732;2022-12-18T16:29:11;100.47;;;39.03;;
33830;SDS011;20137;48.834;8.732;2022-12-18T16:31:37;109.47;;;41.30;;